Time;durP1;ratioP1;P1;durP2;ratioP2;P2;SDS_P1;SDS_P2;PMS_P1;PMS_P2;Temp;Humidity;BMP_temperature;BMP_pressure;BME280_temperature;BME280_humidity;BME280_pressure;Samples;Min_cycle;Max_cycle;Signal;HPM_P1;HPM_P2
2023/04/28 00:01:43;;;;;;;0.97;0.97;;;10.90;99.50;;;;;;4994358;28;20640;-71
2023/04/28 00:04:09;;;;;;;0.37;0.37;;;11.00;99.60;;;;;;4994327;28;20192;-71
2023/04/28 00:06:34;;;;;;;0.50;0.50;;;11.10;99.00;;;;;;4994098;28;20503;-70
2023/04/28 00:09:00;;;;;;;0.50;0.50;;;11.40;98.80;;;;;;4993961;28;20629;-70
2023/04/28 00:11:26;;;;;;;0.40;0.40;;;11.30;98.60;;;;;;4994215;28;20184;-70
2023/04/28 00:13:51;;;;;;;0.60;0.60;;;11.10;98.80;;;;;;4994087;28;20207;-70
2023/04/28 00:16:17;;;;;;;0.37;0.37;;;11.20;98.90;;;;;;4994058;28;20164;-71
2023/04/28 00:18:43;;;;;;;1.33;1.23;;;11.00;99.00;;;;;;4994095;28;20164;-70
2023/04/28 00:21:08;;;;;;;0.50;0.50;;;11.10;99.10;;;;;;4994068;28;20168;-70
2023/04/28 00:23:34;;;;;;;0.63;0.63;;;11.30;99.90;;;;;;4994175;28;20544;-71
2023/04/28 00:25:59;;;;;;;0.40;0.40;;;11.30;99.20;;;;;;4993989;28;20529;-70
2023/04/28 00:28:26;;;;;;;0.47;0.47;;;11.30;99.20;;;;;;4993963;28;20168;-70
2023/04/28 00:30:51;;;;;;;1.95;0.95;;;11.20;99.20;;;;;;4994000;28;20184;-70
2023/04/28 00:33:17;;;;;;;1.57;0.80;;;11.40;99.90;;;;;;4993884;28;20203;-70
2023/04/28 00:35:42;;;;;;;0.67;0.67;;;11.00;99.40;;;;;;4993944;28;20195;-70
2023/04/28 00:38:08;;;;;;;0.40;0.40;;;11.10;99.70;;;;;;4996103;28;20217;-70
2023/04/28 00:40:35;;;;;;;0.40;0.40;;;11.20;99.40;;;;;;4998105;28;20168;-71
2023/04/28 00:43:01;;;;;;;0.40;0.40;;;11.20;99.30;;;;;;4996807;28;20180;-70
2023/04/28 00:45:27;;;;;;;0.47;0.47;;;11.40;99.40;;;;;;4997770;28;20950;-70
2023/04/28 00:47:54;;;;;;;1.33;1.03;;;11.20;99.50;;;;;;4997630;28;20479;-70
2023/04/28 00:50:21;;;;;;;0.40;0.40;;;11.20;99.60;;;;;;4997850;28;20442;-70
2023/04/28 00:52:46;;;;;;;0.57;0.57;;;11.20;99.30;;;;;;4997431;28;20469;-70
2023/04/28 00:55:15;;;;;;;0.50;0.50;;;11.30;98.90;;;;;;4997526;28;20427;-71
2023/04/28 00:57:41;;;;;;;0.30;0.30;;;11.30;98.90;;;;;;4997420;28;20192;-70
2023/04/28 01:00:07;;;;;;;0.80;0.80;;;11.30;99.00;;;;;;4997825;28;20792;-71
2023/04/28 01:02:34;;;;;;;0.50;0.50;;;11.30;99.10;;;;;;4997628;28;20403;-71
2023/04/28 01:05:01;;;;;;;0.90;0.90;;;11.30;99.40;;;;;;4997991;28;20431;-70
2023/04/28 01:07:27;;;;;;;1.40;1.30;;;11.20;99.60;;;;;;4997300;28;20439;-71
2023/04/28 01:09:53;;;;;;;0.60;0.60;;;11.30;99.80;;;;;;4997380;28;20773;-71
2023/04/28 01:12:18;;;;;;;0.60;0.60;;;11.40;99.60;;;;;;4997372;28;20444;-70
2023/04/28 01:14:45;;;;;;;0.40;0.40;;;11.40;99.80;;;;;;4997135;28;20434;-71
2023/04/28 01:17:11;;;;;;;0.77;0.77;;;11.40;99.60;;;;;;4997192;28;20640;-71
2023/04/28 01:19:36;;;;;;;1.00;1.00;;;11.40;99.90;;;;;;4997563;28;20835;-70
2023/04/28 01:22:03;;;;;;;0.40;0.40;;;11.50;99.90;;;;;;4997117;28;20427;-70
2023/04/28 01:24:29;;;;;;;0.60;0.60;;;11.40;99.90;;;;;;4997075;28;20207;-70
2023/04/28 01:26:55;;;;;;;0.40;0.40;;;11.40;99.90;;;;;;4997011;28;20584;-70
2023/04/28 01:29:20;;;;;;;5.30;0.70;;;11.20;99.90;;;;;;4997168;28;20407;-71
2023/04/28 01:31:46;;;;;;;0.40;0.40;;;11.30;99.90;;;;;;4996916;28;20168;-70
2023/04/28 01:34:11;;;;;;;0.40;0.40;;;11.30;99.90;;;;;;4996813;28;20208;-70
2023/04/28 01:36:37;;;;;;;1.90;0.67;;;11.30;99.90;;;;;;4996889;28;20175;-71
2023/04/28 01:39:03;;;;;;;0.70;0.40;;;11.30;99.90;;;;;;4996732;28;20176;-71
2023/04/28 01:41:29;;;;;;;0.63;0.60;;;;;;;;;;4997031;28;20207;-71
2023/04/28 01:43:55;;;;;;;0.50;0.50;;;11.20;99.90;;;;;;4996836;28;20460;-70
2023/04/28 01:46:20;;;;;;;0.97;0.97;;;11.20;99.90;;;;;;4996653;28;20457;-70
2023/04/28 01:48:46;;;;;;;1.07;1.07;;;11.20;99.90;;;;;;4996358;28;20687;-71
2023/04/28 01:51:12;;;;;;;0.97;0.80;;;;;;;;;;4996790;28;20168;-71
2023/04/28 01:53:38;;;;;;;0.50;0.50;;;11.50;99.90;;;;;;4996567;28;20195;-70
2023/04/28 01:56:04;;;;;;;0.50;0.50;;;11.30;99.90;;;;;;4996770;28;20922;-71
2023/04/28 01:58:29;;;;;;;0.40;0.40;;;11.30;99.90;;;;;;4996526;28;20214;-70
2023/04/28 02:00:55;;;;;;;0.57;0.57;;;11.30;99.90;;;;;;4996413;28;20704;-70
2023/04/28 02:03:20;;;;;;;1.63;1.63;;;11.30;99.90;;;;;;4996335;28;20231;-70
2023/04/28 02:05:46;;;;;;;0.60;0.60;;;11.30;99.90;;;;;;4994974;28;20296;-71
2023/04/28 02:08:12;;;;;;;0.60;0.60;;;11.20;99.90;;;;;;4996236;28;20251;-71
2023/04/28 02:10:37;;;;;;;0.60;0.60;;;11.20;99.90;;;;;;4996570;28;20176;-70
2023/04/28 02:13:03;;;;;;;0.80;0.80;;;11.20;99.90;;;;;;4996262;28;20207;-71
2023/04/28 02:15:29;;;;;;;0.50;0.40;;;11.20;99.90;;;;;;4996181;28;20192;-70
2023/04/28 02:17:55;;;;;;;1.25;1.15;;;11.30;99.90;;;;;;4995980;28;20179;-71
2023/04/28 02:20:20;;;;;;;1.03;1.03;;;11.20;99.90;;;;;;4996128;28;20176;-70
2023/04/28 02:22:46;;;;;;;1.87;1.77;;;11.20;99.90;;;;;;4995968;28;20259;-70
2023/04/28 02:25:12;;;;;;;0.80;0.80;;;11.20;99.90;;;;;;4995947;28;20188;-70
2023/04/28 02:27:37;;;;;;;1.57;1.30;;;11.20;99.90;;;;;;4995810;28;20175;-70
2023/04/28 02:30:05;;;;;;;0.40;0.40;;;11.30;99.90;;;;;;4995801;28;20176;-71
2023/04/28 02:32:30;;;;;;;0.40;0.40;;;11.30;99.90;;;;;;4995762;28;20283;-70
2023/04/28 02:34:56;;;;;;;0.70;0.70;;;11.20;99.90;;;;;;4995776;28;20502;-70
2023/04/28 02:37:22;;;;;;;0.60;0.60;;;11.20;99.90;;;;;;4995575;28;20426;-70
2023/04/28 02:39:48;;;;;;;1.30;1.20;;;11.20;99.90;;;;;;4995704;28;20621;-70
2023/04/28 02:42:14;;;;;;;1.23;0.90;;;11.30;99.90;;;;;;4995883;28;20558;-70
2023/04/28 02:44:39;;;;;;;0.80;0.80;;;11.30;99.90;;;;;;4995571;28;20188;-70
2023/04/28 02:47:05;;;;;;;1.83;1.73;;;11.30;99.90;;;;;;4995376;28;20531;-70
2023/04/28 02:49:31;;;;;;;0.40;0.40;;;11.30;99.90;;;;;;4995745;28;20168;-70
2023/04/28 02:51:56;;;;;;;1.53;0.67;;;11.20;99.90;;;;;;4995323;28;20188;-70
2023/04/28 02:54:28;;;;;;;0.80;0.70;;;11.20;99.90;;;;;;4995309;28;20204;-71
2023/04/28 02:56:57;;;;;;;0.67;0.67;;;11.30;99.90;;;;;;4995470;28;20195;-70
2023/04/28 02:59:23;;;;;;;0.40;0.40;;;11.30;99.90;;;;;;4995251;28;20410;-70
2023/04/28 03:01:50;;;;;;;1.43;1.33;;;11.30;99.90;;;;;;4994887;28;20959;-70
2023/04/28 03:04:16;;;;;;;0.95;0.95;;;11.30;99.90;;;;;;4995376;28;20439;-71
2023/04/28 03:06:42;;;;;;;1.27;1.27;;;11.30;99.90;;;;;;4995261;28;20187;-71
2023/04/28 03:09:08;;;;;;;1.00;0.90;;;11.30;99.90;;;;;;4995268;28;20176;-70
2023/04/28 03:11:34;;;;;;;0.50;0.50;;;11.40;99.90;;;;;;4995269;28;20645;-71
2023/04/28 03:14:00;;;;;;;0.67;0.67;;;11.30;99.90;;;;;;4995014;28;20255;-70
2023/04/28 03:16:26;;;;;;;0.50;0.40;;;11.40;99.90;;;;;;4995112;28;20172;-71
2023/04/28 03:18:52;;;;;;;1.60;1.17;;;11.50;99.90;;;;;;4994838;28;20404;-71
2023/04/28 03:21:17;;;;;;;0.63;0.63;;;11.40;99.90;;;;;;4994406;28;20264;-71
2023/04/28 03:23:43;;;;;;;1.03;0.93;;;11.20;99.90;;;;;;4994905;28;20183;-70
2023/04/28 03:26:08;;;;;;;0.83;0.83;;;11.40;99.90;;;;;;4994804;28;20238;-70
2023/04/28 03:28:34;;;;;;;1.70;1.60;;;11.30;99.90;;;;;;4994682;28;20255;-71
2023/04/28 03:31:01;;;;;;;2.60;1.77;;;11.40;99.90;;;;;;4994814;28;20175;-70
2023/04/28 03:33:27;;;;;;;1.58;1.48;;;11.60;99.90;;;;;;4994681;28;20667;-71
2023/04/28 03:35:53;;;;;;;0.50;0.50;;;11.40;99.90;;;;;;4994698;28;20176;-70
2023/04/28 03:38:19;;;;;;;1.70;1.40;;;11.40;99.90;;;;;;4994530;28;20172;-71
2023/04/28 03:40:45;;;;;;;0.50;0.50;;;11.40;99.90;;;;;;4994975;28;20788;-71
2023/04/28 03:43:11;;;;;;;0.80;0.50;;;11.40;99.90;;;;;;4994673;28;20183;-70
2023/04/28 03:45:37;;;;;;;0.50;0.50;;;11.40;99.90;;;;;;4993167;28;20816;-70
2023/04/28 03:48:02;;;;;;;1.23;1.23;;;11.30;99.90;;;;;;4994293;28;20419;-71
2023/04/28 03:50:28;;;;;;;1.67;0.87;;;11.30;99.90;;;;;;4994427;28;20418;-70
2023/04/28 03:52:53;;;;;;;0.50;0.50;;;11.40;99.90;;;;;;4994233;28;20253;-70
2023/04/28 03:55:19;;;;;;;1.10;0.97;;;11.40;99.90;;;;;;4994285;28;20200;-70
2023/04/28 03:57:45;;;;;;;4.10;1.17;;;11.40;99.90;;;;;;4994271;28;20204;-71
2023/04/28 04:00:13;;;;;;;0.70;0.70;;;11.40;99.90;;;;;;4994396;28;20439;-70
2023/04/28 04:02:38;;;;;;;0.60;0.60;;;11.30;99.90;;;;;;4994398;28;20399;-70
2023/04/28 04:05:04;;;;;;;1.00;1.00;;;11.40;99.90;;;;;;4994225;28;20469;-70
2023/04/28 04:07:30;;;;;;;1.00;0.87;;;11.40;99.90;;;;;;4992760;28;20676;-70
2023/04/28 04:09:56;;;;;;;0.93;0.93;;;11.40;99.90;;;;;;4994335;28;20454;-71
2023/04/28 04:12:21;;;;;;;0.90;0.90;;;11.40;99.90;;;;;;4993146;28;20257;-70
2023/04/28 04:14:47;;;;;;;0.50;0.50;;;11.40;99.90;;;;;;4994115;28;20200;-70
2023/04/28 04:17:13;;;;;;;0.37;0.37;;;;;;;;;;4993876;28;20173;-70
2023/04/28 04:19:38;;;;;;;0.57;0.57;;;11.50;99.90;;;;;;4994117;28;20212;-70
2023/04/28 04:22:04;;;;;;;0.77;0.77;;;11.50;99.90;;;;;;4994173;28;20418;-70
2023/04/28 04:24:29;;;;;;;0.73;0.73;;;11.40;99.90;;;;;;4992599;28;20200;-70
2023/04/28 04:26:55;;;;;;;0.40;0.40;;;11.40;99.90;;;;;;4992599;28;20191;-71
2023/04/28 04:29:21;;;;;;;2.40;1.83;;;11.40;99.90;;;;;;4993926;28;20176;-71
2023/04/28 04:31:46;;;;;;;1.73;1.40;;;11.40;99.90;;;;;;4994097;28;20180;-71
2023/04/28 04:34:12;;;;;;;0.47;0.47;;;11.50;99.90;;;;;;4993960;28;20269;-71
2023/04/28 04:36:37;;;;;;;1.70;1.47;;;11.50;99.90;;;;;;4993771;28;20273;-71
2023/04/28 04:39:03;;;;;;;0.67;0.67;;;11.50;99.90;;;;;;4993696;28;20173;-70
2023/04/28 04:41:29;;;;;;;0.63;0.63;;;11.50;99.90;;;;;;4993868;28;20175;-70
2023/04/28 04:43:54;;;;;;;0.50;0.50;;;11.50;99.90;;;;;;4993775;28;20207;-70
2023/04/28 04:46:20;;;;;;;2.20;1.77;;;11.50;99.90;;;;;;4994368;28;20576;-70
2023/04/28 04:48:46;;;;;;;1.67;1.63;;;11.50;99.90;;;;;;4993741;28;20199;-71
2023/04/28 04:51:12;;;;;;;1.27;1.27;;;11.50;99.90;;;;;;4993558;28;20174;-71
2023/04/28 04:53:37;;;;;;;0.30;0.30;;;11.40;99.90;;;;;;4993796;28;20211;-70
2023/04/28 04:56:03;;;;;;;2.00;0.50;;;11.50;99.90;;;;;;4993831;28;20180;-70
2023/04/28 04:58:29;;;;;;;0.43;0.43;;;11.50;99.90;;;;;;4993582;28;20223;-70
2023/04/28 05:00:55;;;;;;;0.40;0.40;;;11.60;99.90;;;;;;4993911;28;20830;-70
2023/04/28 05:03:21;;;;;;;0.50;0.50;;;11.80;99.90;;;;;;4993607;28;20412;-71
2023/04/28 05:05:47;;;;;;;0.30;0.30;;;11.80;99.90;;;;;;4994009;28;20207;-71
2023/04/28 05:08:13;;;;;;;0.83;0.83;;;11.80;99.90;;;;;;4993419;28;20267;-71
2023/04/28 05:10:39;;;;;;;0.40;0.40;;;11.90;99.90;;;;;;4993938;28;20967;-71
2023/04/28 05:13:05;;;;;;;0.87;0.87;;;;;;;;;;4993814;28;20291;-70
2023/04/28 05:15:31;;;;;;;0.50;0.50;;;12.00;99.90;;;;;;4993590;28;20423;-71
2023/04/28 05:17:57;;;;;;;0.40;0.40;;;12.00;99.90;;;;;;4993364;28;20411;-71
2023/04/28 05:20:23;;;;;;;0.40;0.40;;;12.10;99.90;;;;;;4993471;28;20500;-71
2023/04/28 05:22:49;;;;;;;0.80;0.80;;;12.10;99.90;;;;;;4993840;28;20411;-71
2023/04/28 05:25:15;;;;;;;0.73;0.73;;;12.20;99.90;;;;;;4997052;28;20494;-71
2023/04/28 05:27:41;;;;;;;0.50;0.50;;;12.20;99.90;;;;;;4996894;28;20792;-71
2023/04/28 05:30:07;;;;;;;1.03;0.70;;;12.20;99.90;;;;;;4997179;28;20465;-71
2023/04/28 05:32:34;;;;;;;0.60;0.60;;;12.20;99.90;;;;;;4997096;28;20199;-71
2023/04/28 05:35:00;;;;;;;2.20;2.10;;;12.20;99.90;;;;;;4995665;28;20446;-71
2023/04/28 05:37:25;;;;;;;0.63;0.60;;;12.20;99.90;;;;;;4996724;28;20403;-71
2023/04/28 05:39:51;;;;;;;0.50;0.50;;;12.20;99.90;;;;;;4996905;28;20175;-71
2023/04/28 05:42:17;;;;;;;0.60;0.60;;;12.30;99.90;;;;;;4996931;28;20168;-70
2023/04/28 05:44:42;;;;;;;1.10;0.70;;;12.30;99.90;;;;;;4996790;28;20659;-70
2023/04/28 05:47:08;;;;;;;0.30;0.30;;;12.30;99.90;;;;;;4996578;28;20168;-71
2023/04/28 05:49:34;;;;;;;0.63;0.63;;;12.30;99.90;;;;;;4996817;28;20168;-71
2023/04/28 05:51:59;;;;;;;0.40;0.40;;;12.30;99.90;;;;;;4996637;28;20219;-71
2023/04/28 05:54:25;;;;;;;0.40;0.40;;;12.30;99.90;;;;;;4996496;28;20291;-71
2023/04/28 05:56:52;;;;;;;0.37;0.37;;;12.30;99.90;;;;;;4996401;28;20172;-71
2023/04/28 05:59:18;;;;;;;0.50;0.50;;;12.40;99.90;;;;;;4996530;28;20450;-70
2023/04/28 06:01:44;;;;;;;0.40;0.40;;;12.30;99.90;;;;;;4996630;28;20408;-70
2023/04/28 06:04:09;;;;;;;0.30;0.30;;;12.30;99.90;;;;;;4996433;28;20776;-70
2023/04/28 06:06:35;;;;;;;0.47;0.40;;;12.20;99.90;;;;;;4996413;28;20213;-71
2023/04/28 06:09:02;;;;;;;0.97;0.97;;;12.30;99.90;;;;;;4996258;28;20651;-70
2023/04/28 06:11:28;;;;;;;0.50;0.50;;;12.30;99.90;;;;;;4994978;28;20934;-70
2023/04/28 06:13:53;;;;;;;0.70;0.50;;;12.30;99.90;;;;;;4996198;28;20458;-70
2023/04/28 06:16:19;;;;;;;0.40;0.40;;;12.30;99.90;;;;;;4996184;28;20902;-71
2023/04/28 06:18:45;;;;;;;0.60;0.50;;;12.40;99.90;;;;;;4995995;28;20172;-71
2023/04/28 06:21:10;;;;;;;0.60;0.60;;;12.40;99.90;;;;;;4996157;28;20190;-71
2023/04/28 06:23:37;;;;;;;0.77;0.70;;;12.80;99.90;;;;;;4996051;28;20176;-71
2023/04/28 06:26:03;;;;;;;0.40;0.40;;;;;;;;;;4996055;28;20183;-70
2023/04/28 06:28:29;;;;;;;0.50;0.50;;;12.50;99.90;;;;;;4995802;28;20419;-70
2023/04/28 06:30:55;;;;;;;0.30;0.30;;;12.50;99.90;;;;;;4996062;28;20408;-71
2023/04/28 06:33:20;;;;;;;0.30;0.30;;;12.50;99.90;;;;;;4996039;28;20458;-70
2023/04/28 06:35:46;;;;;;;1.30;1.23;;;12.50;99.90;;;;;;4994758;28;20251;-70
2023/04/28 06:38:12;;;;;;;0.50;0.50;;;12.40;99.90;;;;;;4994729;28;20204;-71
2023/04/28 06:40:39;;;;;;;0.40;0.40;;;12.50;99.90;;;;;;4995919;28;20172;-70
2023/04/28 06:43:05;;;;;;;0.43;0.43;;;12.40;99.90;;;;;;4995818;28;20594;-70
2023/04/28 06:45:30;;;;;;;0.40;0.40;;;12.40;99.90;;;;;;4995806;28;20431;-70
2023/04/28 06:47:56;;;;;;;2.87;0.60;;;12.50;99.90;;;;;;4995785;28;20180;-71
2023/04/28 06:50:23;;;;;;;0.70;0.70;;;12.50;99.90;;;;;;4995696;28;20252;-70
2023/04/28 06:52:49;;;;;;;0.40;0.40;;;12.40;99.90;;;;;;4995424;28;20211;-71
2023/04/28 06:55:16;;;;;;;0.40;0.40;;;12.40;99.90;;;;;;4995478;28;20431;-71
2023/04/28 06:57:42;;;;;;;0.70;0.70;;;12.50;99.90;;;;;;4995198;28;20419;-71
2023/04/28 07:00:10;;;;;;;0.43;0.43;;;12.60;99.90;;;;;;4995433;28;20850;-71
2023/04/28 07:02:35;;;;;;;0.83;0.80;;;12.70;99.90;;;;;;4994040;28;20792;-70
2023/04/28 07:05:02;;;;;;;0.67;0.67;;;12.70;99.90;;;;;;4995193;28;20426;-71
2023/04/28 07:07:28;;;;;;;0.40;0.40;;;12.80;99.90;;;;;;4995202;28;20179;-70
2023/04/28 07:09:54;;;;;;;0.50;0.50;;;12.80;99.90;;;;;;4995255;28;20406;-71
2023/04/28 07:12:21;;;;;;;0.40;0.40;;;12.80;99.90;;;;;;4995123;28;20399;-71
2023/04/28 07:14:46;;;;;;;0.40;0.40;;;12.80;99.90;;;;;;4995016;28;20491;-70
2023/04/28 07:17:12;;;;;;;0.60;0.60;;;12.70;99.90;;;;;;4995063;28;20404;-70
2023/04/28 07:19:38;;;;;;;0.57;0.57;;;12.70;99.90;;;;;;4993680;28;20635;-71
2023/04/28 07:22:03;;;;;;;1.17;1.17;;;12.80;99.90;;;;;;4994994;28;20621;-70
2023/04/28 07:24:29;;;;;;;0.40;0.40;;;12.80;99.90;;;;;;4994994;28;20665;-71
2023/04/28 07:26:56;;;;;;;0.53;0.53;;;12.90;99.90;;;;;;4994822;28;20262;-71
2023/04/28 07:29:22;;;;;;;0.50;0.50;;;12.80;99.90;;;;;;4994806;28;20415;-71
2023/04/28 07:31:47;;;;;;;0.40;0.40;;;12.60;99.90;;;;;;4995002;28;20418;-70
2023/04/28 07:34:13;;;;;;;0.63;0.63;;;12.50;99.90;;;;;;4994780;28;20463;-70
2023/04/28 07:36:39;;;;;;;0.50;0.50;;;12.50;99.90;;;;;;4994733;28;20164;-70
2023/04/28 07:39:05;;;;;;;0.30;0.30;;;12.60;99.90;;;;;;4994640;28;20180;-70
2023/04/28 07:41:38;;;;;;;0.77;0.70;;;12.70;99.90;;;;;;4994676;28;20168;-70
2023/04/28 07:44:07;;;;;;;0.40;0.40;;;12.60;99.90;;;;;;4994648;28;20242;-71
2023/04/28 07:46:33;;;;;;;0.43;0.43;;;12.70;99.90;;;;;;4994725;28;20422;-71
2023/04/28 07:48:59;;;;;;;0.40;0.40;;;12.70;99.90;;;;;;4994397;28;20418;-71
2023/04/28 07:51:25;;;;;;;0.40;0.40;;;12.70;99.90;;;;;;4994379;28;20963;-70
2023/04/28 07:53:51;;;;;;;0.40;0.40;;;12.60;99.90;;;;;;4994430;28;20465;-70
2023/04/28 07:56:17;;;;;;;0.30;0.30;;;12.60;99.90;;;;;;4994359;28;20204;-70
2023/04/28 07:58:42;;;;;;;0.30;0.30;;;12.80;99.90;;;;;;4994142;28;20225;-71
2023/04/28 08:01:08;;;;;;;0.37;0.37;;;12.90;99.90;;;;;;4994282;28;20180;-71
2023/04/28 08:03:33;;;;;;;0.37;0.37;;;12.90;99.90;;;;;;4994559;28;20211;-71
2023/04/28 08:06:00;;;;;;;0.40;0.40;;;12.90;99.90;;;;;;4994625;28;20259;-71
2023/04/28 08:08:26;;;;;;;0.50;0.50;;;12.90;99.90;;;;;;4992741;28;20180;-70
2023/04/28 08:10:53;;;;;;;0.60;0.40;;;12.90;99.90;;;;;;4994378;28;20411;-70
2023/04/28 08:13:18;;;;;;;0.43;0.43;;;12.80;99.90;;;;;;4994461;28;20459;-71
2023/04/28 08:15:45;;;;;;;1.47;1.33;;;12.80;99.90;;;;;;4994054;28;20438;-70
2023/04/28 08:18:11;;;;;;;0.50;0.50;;;12.80;99.90;;;;;;4993924;28;20654;-71
2023/04/28 08:20:37;;;;;;;0.50;0.50;;;12.90;99.90;;;;;;4994376;28;20407;-70
2023/04/28 08:23:02;;;;;;;0.43;0.43;;;12.90;99.90;;;;;;4994146;28;20176;-70
2023/04/28 08:25:28;;;;;;;0.70;0.60;;;12.80;99.90;;;;;;4993886;28;20190;-70
2023/04/28 08:27:54;;;;;;;2.00;1.90;;;12.80;99.90;;;;;;4993798;28;20195;-70
2023/04/28 08:30:20;;;;;;;0.40;0.40;;;12.80;99.90;;;;;;4994153;28;20186;-71
2023/04/28 08:32:46;;;;;;;2.10;2.00;;;13.00;99.90;;;;;;4994149;28;20462;-70
2023/04/28 08:35:14;;;;;;;1.43;0.90;;;12.90;99.90;;;;;;4993770;28;20627;-70
2023/04/28 08:37:40;;;;;;;1.13;1.07;;;12.80;99.90;;;;;;4993673;28;20234;-70
2023/04/28 08:40:08;;;;;;;0.40;0.40;;;12.70;99.90;;;;;;4993776;28;20822;-70
2023/04/28 08:42:36;;;;;;;0.60;0.60;;;12.60;99.90;;;;;;4993781;28;20395;-70
2023/04/28 08:45:03;;;;;;;0.30;0.30;;;12.70;99.90;;;;;;4992490;28;20439;-70
2023/04/28 08:47:33;;;;;;;0.43;0.43;;;12.80;99.90;;;;;;4993700;28;20968;-71
2023/04/28 08:50:04;;;;;;;0.60;0.60;;;12.80;99.90;;;;;;4993835;28;20404;-71
2023/04/28 08:52:30;;;;;;;0.90;0.50;;;13.00;99.90;;;;;;4993538;28;20786;-70
2023/04/28 08:54:58;;;;;;;0.60;0.60;;;13.20;99.90;;;;;;4993629;28;21021;-70
2023/04/28 08:57:27;;;;;;;0.93;0.93;;;13.20;99.90;;;;;;4993755;28;20410;-71
2023/04/28 08:59:53;;;;;;;1.30;1.13;;;13.40;99.90;;;;;;4997285;28;20411;-71
2023/04/28 09:02:19;;;;;;;0.70;0.70;;;;;;;;;;4997659;28;20816;-70
2023/04/28 09:04:46;;;;;;;0.53;0.53;;;13.70;99.90;;;;;;4997587;28;20434;-71
2023/04/28 09:07:13;;;;;;;0.83;0.83;;;13.70;99.90;;;;;;4997800;28;20498;-71
2023/04/28 09:09:39;;;;;;;0.60;0.60;;;13.70;99.90;;;;;;4997660;28;20466;-71
2023/04/28 09:12:06;;;;;;;0.50;0.40;;;13.80;99.90;;;;;;4997540;28;20806;-70
2023/04/28 09:14:33;;;;;;;0.30;0.30;;;13.80;99.90;;;;;;4997263;28;20451;-71
2023/04/28 09:17:00;;;;;;;0.50;0.50;;;13.80;99.90;;;;;;4997274;28;20497;-70
2023/04/28 09:19:36;;;;;;;0.30;0.30;;;13.80;99.90;;;;;;4997213;28;20429;-70
2023/04/28 09:22:03;;;;;;;0.40;0.40;;;13.90;99.90;;;;;;4997377;28;20399;-71
2023/04/28 09:24:31;;;;;;;0.30;0.30;;;14.10;99.90;;;;;;4997303;28;20998;-71
2023/04/28 09:26:58;;;;;;;0.97;0.67;;;14.10;99.90;;;;;;4997120;28;20947;-71
2023/04/28 09:29:24;;;;;;;0.40;0.40;;;14.10;99.90;;;;;;4997298;28;20401;-70
2023/04/28 09:31:50;;;;;;;0.30;0.30;;;14.10;99.90;;;;;;4997165;28;20403;-70
2023/04/28 09:34:16;;;;;;;0.30;0.30;;;14.00;99.90;;;;;;4997015;28;20464;-71
2023/04/28 09:36:41;;;;;;;0.40;0.40;;;13.90;99.90;;;;;;4996923;28;20259;-71
2023/04/28 09:39:07;;;;;;;0.40;0.40;;;13.80;99.90;;;;;;4995500;28;20502;-70
2023/04/28 09:41:39;;;;;;;0.40;0.40;;;13.80;99.90;;;;;;4997050;28;20168;-70
2023/04/28 09:44:13;;;;;;;0.40;0.40;;;13.80;99.90;;;;;;4996697;28;20197;-71
2023/04/28 09:46:39;;;;;;;0.50;0.50;;;13.90;99.90;;;;;;4995523;28;20466;-70
2023/04/28 09:49:04;;;;;;;0.40;0.40;;;13.90;99.90;;;;;;4996685;28;20437;-71
2023/04/28 09:51:31;;;;;;;0.60;0.60;;;14.00;99.90;;;;;;4996500;28;20184;-70
2023/04/28 09:53:59;;;;;;;0.97;0.97;;;14.10;99.90;;;;;;4996523;28;20192;-71
2023/04/28 09:56:28;;;;;;;0.53;0.53;;;14.30;99.90;;;;;;4996673;28;20411;-71
2023/04/28 09:58:59;;;;;;;0.40;0.40;;;14.40;99.90;;;;;;4996431;28;20490;-71
2023/04/28 10:01:29;;;;;;;0.40;0.40;;;14.30;99.90;;;;;;4996468;28;20397;-71
2023/04/28 10:03:56;;;;;;;0.30;0.30;;;14.30;99.90;;;;;;4996349;28;20436;-71
2023/04/28 10:06:22;;;;;;;0.37;0.37;;;14.30;99.90;;;;;;4996640;28;20416;-71
2023/04/28 10:08:50;;;;;;;0.40;0.40;;;14.40;99.90;;;;;;4996261;28;20563;-71
2023/04/28 10:11:16;;;;;;;0.40;0.40;;;14.40;99.90;;;;;;4996391;28;20573;-71
2023/04/28 10:13:43;;;;;;;0.30;0.30;;;14.30;99.90;;;;;;4994951;28;20966;-71
2023/04/28 10:16:09;;;;;;;0.60;0.60;;;14.50;99.90;;;;;;4996184;28;20443;-71
2023/04/28 10:18:36;;;;;;;0.57;0.57;;;14.60;99.90;;;;;;4994753;28;20750;-70
2023/04/28 10:21:03;;;;;;;0.30;0.30;;;14.80;99.90;;;;;;4996144;28;20424;-70
2023/04/28 10:24:05;;;;;;;0.30;0.30;;;14.70;99.90;;;;;;4996080;28;20412;-71
2023/04/28 10:27:08;;;;;;;0.50;0.50;;;14.80;99.90;;;;;;4994679;28;20938;-71
2023/04/28 10:29:35;;;;;;;0.30;0.30;;;14.70;99.90;;;;;;4994690;28;20419;-70
2023/04/28 10:32:21;;;;;;;0.70;0.70;;;14.60;99.90;;;;;;4996238;28;20438;-71
2023/04/28 10:34:47;;;;;;;0.40;0.40;;;;;;;;;;4995641;28;20958;-71
2023/04/28 10:37:18;;;;;;;0.33;0.33;;;14.50;99.90;;;;;;4995846;28;20399;-71
2023/04/28 10:40:22;;;;;;;0.47;0.47;;;14.50;99.90;;;;;;4995828;28;20898;-71
2023/04/28 10:42:53;;;;;;;1.33;0.60;;;14.40;99.90;;;;;;4985286;28;20420;-71
2023/04/28 10:45:53;;;;;;;0.40;0.40;;;14.50;99.90;;;;;;4995592;28;20778;-71
2023/04/28 10:48:20;;;;;;;0.33;0.33;;;14.60;99.90;;;;;;4995524;28;20760;-70
2023/04/28 10:51:08;;;;;;;0.40;0.40;;;14.70;99.90;;;;;;4995896;28;20423;-71
2023/04/28 10:53:45;;;;;;;0.50;0.50;;;14.70;99.90;;;;;;4995470;28;20544;-70
2023/04/28 10:56:24;;;;;;;0.60;0.60;;;14.60;99.90;;;;;;4995468;28;20526;-71
2023/04/28 10:58:57;;;;;;;1.60;1.50;;;14.60;99.90;;;;;;4995354;28;20403;-71
2023/04/28 11:01:33;;;;;;;0.47;0.47;;;14.70;99.90;;;;;;4995680;28;20918;-70
2023/04/28 11:04:10;;;;;;;0.30;0.30;;;14.50;99.90;;;;;;4995460;28;20418;-71
2023/04/28 11:06:39;;;;;;;10.53;0.93;;;14.50;99.90;;;;;;4995329;28;20395;-71
2023/04/28 11:09:13;;;;;;;0.50;0.40;;;14.50;99.90;;;;;;4995199;28;20470;-71
2023/04/28 11:11:58;;;;;;;1.90;0.80;;;14.70;99.90;;;;;;4995266;28;20448;-71
2023/04/28 11:14:24;;;;;;;0.50;0.50;;;14.80;99.90;;;;;;4994985;28;20892;-70
2023/04/28 11:16:52;;;;;;;3.73;0.60;;;15.20;99.90;;;;;;4994902;28;20407;-70
2023/04/28 11:19:19;;;;;;;1.53;1.23;;;15.50;99.90;;;;;;4995112;28;20229;-71
2023/04/28 11:21:48;;;;;;;0.30;0.30;;;15.90;99.90;;;;;;4994523;28;20410;-71
2023/04/28 11:24:14;;;;;;;0.40;0.40;;;16.10;99.90;;;;;;4994966;28;20427;-71
2023/04/28 11:26:41;;;;;;;0.30;0.30;;;16.30;99.90;;;;;;4994901;28;20790;-71
2023/04/28 11:29:07;;;;;;;0.40;0.40;;;16.40;99.90;;;;;;4994594;28;20935;-71
2023/04/28 11:31:33;;;;;;;0.60;0.60;;;16.50;99.90;;;;;;4995045;28;20549;-71
2023/04/28 11:34:20;;;;;;;0.43;0.43;;;16.40;99.90;;;;;;4994766;28;21014;-71
2023/04/28 11:36:46;;;;;;;0.90;0.90;;;16.40;99.90;;;;;;4994807;28;20171;-71
2023/04/28 11:39:12;;;;;;;0.77;0.40;;;16.40;99.90;;;;;;4994837;28;20423;-71
2023/04/28 11:41:42;;;;;;;0.40;0.40;;;16.50;99.90;;;;;;4994741;28;20168;-70
2023/04/28 11:44:17;;;;;;;0.77;0.77;;;16.40;99.90;;;;;;4994470;28;20434;-71
2023/04/28 11:46:45;;;;;;;0.50;0.50;;;16.30;99.90;;;;;;4994712;28;20401;-71
2023/04/28 11:49:13;;;;;;;0.40;0.40;;;16.20;99.90;;;;;;4994600;28;20408;-71
2023/04/28 11:51:40;;;;;;;0.40;0.40;;;16.20;99.90;;;;;;4994480;28;20518;-71
2023/04/28 11:54:06;;;;;;;0.30;0.30;;;16.20;99.90;;;;;;4994495;28;20458;-72
2023/04/28 11:56:40;;;;;;;0.30;0.30;;;16.10;99.90;;;;;;4994380;28;20499;-71
2023/04/28 11:59:12;;;;;;;0.50;0.50;;;16.10;99.90;;;;;;4994221;28;20947;-71
2023/04/28 12:01:44;;;;;;;0.50;0.40;;;16.10;99.90;;;;;;4994220;28;20763;-70
2023/04/28 12:04:11;;;;;;;0.40;0.40;;;16.30;99.90;;;;;;4994298;28;20443;-71
2023/04/28 12:06:37;;;;;;;0.50;0.50;;;16.40;99.90;;;;;;4994348;28;20418;-71
2023/04/28 12:09:15;;;;;;;0.70;0.70;;;16.50;99.90;;;;;;4994046;28;20411;-71
2023/04/28 12:11:52;;;;;;;53.10;2.10;;;16.50;99.90;;;;;;4994408;28;20403;-71
2023/04/28 12:14:18;;;;;;;0.77;0.40;;;16.60;99.90;;;;;;4994195;28;20474;-71
2023/04/28 12:16:43;;;;;;;2.07;0.80;;;16.60;99.90;;;;;;4993973;28;20805;-71
2023/04/28 12:19:10;;;;;;;1.23;1.23;;;16.70;99.90;;;;;;4994425;28;20172;-71
2023/04/28 12:21:38;;;;;;;0.53;0.53;;;17.00;99.90;;;;;;4993982;28;20172;-71
2023/04/28 12:24:20;;;;;;;0.70;0.70;;;17.20;99.90;;;;;;4994076;28;20431;-71
2023/04/28 12:26:47;;;;;;;0.60;0.60;;;17.40;99.90;;;;;;4993898;28;20905;-71
2023/04/28 12:29:38;;;;;;;0.80;0.77;;;17.30;99.90;;;;;;4994394;28;20408;-71
2023/04/28 12:32:08;;;;;;;1.07;1.07;;;17.30;99.90;;;;;;4993750;28;20399;-71
2023/04/28 12:34:35;;;;;;;0.90;0.70;;;17.20;99.90;;;;;;4993465;28;20456;-72
2023/04/28 12:37:02;;;;;;;0.40;0.40;;;17.20;99.90;;;;;;4993953;28;20400;-71
2023/04/28 12:39:28;;;;;;;0.63;0.60;;;17.20;99.90;;;;;;4994115;28;20490;-71
2023/04/28 12:41:58;;;;;;;0.90;0.80;;;17.10;99.90;;;;;;4993957;28;20483;-71
2023/04/28 12:44:24;;;;;;;0.47;0.47;;;16.90;99.90;;;;;;4993819;28;20277;-71
2023/04/28 12:46:51;;;;;;;0.73;0.73;;;17.00;99.90;;;;;;4993687;28;20413;-71
2023/04/28 12:49:16;;;;;;;0.60;0.53;;;17.10;99.90;;;;;;4993973;28;20412;-71